Time;durP1;ratioP1;P1;durP2;ratioP2;P2;SDS_P1;SDS_P2;PMS_P1;PMS_P2;Temp;Humidity;BMP_temperature;BMP_pressure;BME280_temperature;BME280_humidity;BME280_pressure;Samples;Min_cycle;Max_cycle;Signal;HPM_P1;HPM_P2
2022/11/07 00:01:49;;;;;;;9.47;5.77;;;;;;;12.00;100.00;100484.03;2615343;36;20027;-55
2022/11/07 00:04:20;;;;;;;10.75;5.45;;;;;;;11.94;100.00;100490.03;2615909;36;20030;-55
2022/11/07 00:06:48;;;;;;;12.00;5.85;;;;;;;11.94;100.00;100490.91;2615022;36;20606;-56
2022/11/07 00:09:17;;;;;;;10.15;5.20;;;;;;;11.89;100.00;100503.97;2615710;36;20041;-54
2022/11/07 00:11:45;;;;;;;9.50;5.30;;;;;;;12.03;100.00;100489.97;2616018;36;20038;-55
2022/11/07 00:14:14;;;;;;;12.32;5.22;;;;;;;12.09;100.00;100493.91;2616887;31;20279;-53
2022/11/07 00:16:42;;;;;;;10.82;5.40;;;;;;;12.07;100.00;100495.91;2615580;36;20037;-54
2022/11/07 00:19:11;;;;;;;12.90;4.97;;;;;;;12.18;100.00;100506.47;2617168;36;20026;-54
2022/11/07 00:21:43;;;;;;;12.10;5.00;;;;;;;12.17;100.00;100504.75;2614365;36;20570;-52
2022/11/07 00:24:12;;;;;;;8.77;5.00;;;;;;;12.06;100.00;100524.72;2615344;31;20030;-53
2022/11/07 00:26:41;;;;;;;9.38;5.05;;;;;;;12.19;100.00;100505.47;2615593;36;20046;-56
2022/11/07 00:29:09;;;;;;;6.63;4.57;;;;;;;12.16;100.00;100519.28;2616720;36;20022;-53
2022/11/07 00:31:37;;;;;;;8.20;4.78;;;;;;;12.33;100.00;100524.81;2615953;36;20030;-56
2022/11/07 00:34:05;;;;;;;8.45;4.78;;;;;;;12.23;100.00;100516.78;2616544;36;20531;-54
2022/11/07 00:36:34;;;;;;;7.00;4.55;;;;;;;12.13;100.00;100526.81;2617052;31;20031;-51
2022/11/07 00:39:06;;;;;;;8.48;4.93;;;;;;;12.22;100.00;100537.53;2616482;36;20045;-52
2022/11/07 00:41:35;;;;;;;7.80;4.55;;;;;;;12.22;100.00;100534.84;2615227;36;20041;-58
2022/11/07 00:44:03;;;;;;;10.05;4.25;;;;;;;12.21;100.00;100537.69;2616246;36;20031;-51
2022/11/07 00:46:31;;;;;;;5.07;3.70;;;;;;;12.27;100.00;100534.38;2615510;36;20022;-58
2022/11/07 00:49:00;;;;;;;7.10;4.57;;;;;;;12.31;100.00;100532.19;2616588;36;20041;-58
2022/11/07 00:51:30;;;;;;;6.63;4.47;;;;;;;12.39;100.00;100545.75;2615806;36;20029;-54
2022/11/07 00:53:59;;;;;;;6.72;4.05;;;;;;;12.55;100.00;100536.97;2615205;36;20034;-56
2022/11/07 00:56:30;;;;;;;10.40;3.60;;;;;;;12.47;100.00;100536.88;2614715;36;20539;-52
2022/11/07 00:59:00;;;;;;;8.38;3.78;;;;;;;12.61;100.00;100536.31;2616344;36;20041;-53
2022/11/07 01:01:30;;;;;;;6.43;3.55;;;;;;;12.37;100.00;100539.69;2616225;36;20038;-55
2022/11/07 01:06:41;;;;;;;7.43;4.00;;;;;;;12.31;100.00;100545.69;2616610;36;20057;-56
2022/11/07 01:09:11;;;;;;;7.03;3.72;;;;;;;12.21;100.00;100546.63;2615066;36;20539;-53
2022/11/07 01:11:44;;;;;;;10.15;4.22;;;;;;;12.31;100.00;100551.06;2616271;36;20026;-54
2022/11/07 01:14:14;;;;;;;6.68;3.58;;;;;;;12.33;100.00;100549.09;2616303;36;20022;-55
2022/11/07 01:16:42;;;;;;;6.72;3.75;;;;;;;12.38;100.00;100560.25;2615319;36;20031;-54
2022/11/07 01:19:11;;;;;;;7.65;3.30;;;;;;;12.49;100.00;100549.22;2616640;31;20034;-49
2022/11/07 01:21:40;;;;;;;6.93;3.33;;;;;;;12.32;100.00;100553.63;2614750;36;20034;-51
2022/11/07 01:24:09;;;;;;;;;;;;;;;12.31;100.00;100562.75;2616518;36;20038;-51
2022/11/07 01:26:39;;;;;;;7.70;3.83;;;;;;;12.20;100.00;100566.50;2616414;36;20490;-53
2022/11/07 01:29:09;;;;;;;;;;;;;;;12.32;100.00;100555.47;2616755;36;20037;-57
2022/11/07 01:31:38;;;;;;;7.82;4.22;;;;;;;12.27;100.00;100567.59;2614980;36;19958;-54
2022/11/07 01:34:07;;;;;;;9.13;4.07;;;;;;;12.30;100.00;100576.38;2615488;36;20034;-55
2022/11/07 01:36:35;;;;;;;6.13;3.95;;;;;;;12.25;100.00;100566.91;2615381;36;20037;-55
2022/11/07 01:39:03;;;;;;;10.50;4.05;;;;;;;12.07;100.00;100566.91;2616645;31;20487;-54
2022/11/07 01:41:34;;;;;;;5.80;3.67;;;;;;;12.21;100.00;100576.31;2614569;36;20031;-54
2022/11/07 01:44:05;;;;;;;11.25;4.15;;;;;;;12.34;100.00;100567.00;2616373;36;20304;-53
2022/11/07 01:46:37;;;;;;;9.60;3.58;;;;;;;12.30;100.00;100574.53;2613504;36;20041;-50
2022/11/07 01:49:11;;;;;;;11.30;4.38;;;;;;;12.13;100.00;100569.97;2615965;36;20026;-53
2022/11/07 01:51:46;;;;;;;7.00;3.55;;;;;;;12.13;100.00;100575.38;2614471;36;20030;-54
2022/11/07 01:54:16;;;;;;;5.47;2.80;;;;;;;12.24;100.00;100584.09;2616687;31;20536;-55
2022/11/07 01:56:46;;;;;;;5.57;3.28;;;;;;;12.16;100.00;100580.47;2615513;36;20038;-51
2022/11/07 01:59:17;;;;;;;8.93;3.28;;;;;;;12.24;100.00;100575.16;2616856;31;20022;-52
2022/11/07 02:01:49;;;;;;;9.75;3.28;;;;;;;12.11;100.00;100585.47;2613521;36;20096;-51
2022/11/07 02:04:19;;;;;;;9.27;3.42;;;;;;;12.12;100.00;100581.75;2616113;31;20034;-51
2022/11/07 02:06:49;;;;;;;6.18;4.00;;;;;;;12.03;100.00;100591.66;2614914;36;20035;-51
2022/11/07 02:09:18;;;;;;;7.38;3.15;;;;;;;12.13;100.00;100588.84;2615447;36;20046;-55
2022/11/07 02:11:46;;;;;;;9.07;3.27;;;;;;;12.11;100.00;100602.50;2616613;31;20022;-51
2022/11/07 02:14:17;;;;;;;9.23;3.22;;;;;;;12.10;100.00;100600.78;2617038;31;20022;-53
2022/11/07 02:16:48;;;;;;;10.75;3.13;;;;;;;12.08;100.00;100613.59;2615561;31;20162;-51
2022/11/07 02:19:27;;;;;;;8.93;3.17;;;;;;;12.11;100.00;100601.66;2616867;31;20547;-61
2022/11/07 02:22:00;;;;;;;8.90;3.80;;;;;;;12.38;100.00;100603.44;2616396;36;20439;-57
2022/11/07 02:24:34;;;;;;;8.23;3.15;;;;;;;12.24;100.00;100610.22;2615537;36;20409;-55
2022/11/07 02:27:07;;;;;;;8.07;2.97;;;;;;;12.31;100.00;100605.06;2614590;36;20035;-56
2022/11/07 02:29:38;;;;;;;9.13;3.17;;;;;;;12.39;100.00;100592.47;2616026;36;20035;-53
2022/11/07 02:32:10;;;;;;;9.60;3.15;;;;;;;12.47;100.00;100598.97;2614577;36;20094;-52
2022/11/07 02:34:44;;;;;;;12.32;3.33;;;;;;;12.37;100.00;100604.47;2616559;54;20022;-55
2022/11/07 02:37:22;;;;;;;4.70;3.00;;;;;;;12.36;100.00;100594.66;2614662;36;20022;-56
2022/11/07 02:39:53;;;;;;;8.18;2.88;;;;;;;12.25;100.00;100587.66;2615946;36;20030;-58
2022/11/07 02:42:21;;;;;;;7.72;2.80;;;;;;;12.35;100.00;100590.25;2614958;36;20030;-54
2022/11/07 02:44:50;;;;;;;7.37;3.47;;;;;;;12.34;100.00;100593.97;2615376;36;20034;-53
2022/11/07 02:47:18;;;;;;;6.80;2.90;;;;;;;12.22;100.00;100586.09;2614554;36;20030;-50
2022/11/07 02:49:53;;;;;;;7.73;3.27;;;;;;;12.30;100.00;100604.22;2616060;36;20291;-52
2022/11/07 02:52:21;;;;;;;6.05;3.88;;;;;;;12.24;100.00;100610.22;2615799;36;20302;-51
2022/11/07 02:54:49;;;;;;;8.75;3.78;;;;;;;12.05;100.00;100595.88;2615767;36;20022;-59
2022/11/07 02:57:20;;;;;;;8.95;3.20;;;;;;;11.97;100.00;100598.50;2615806;36;20058;-52
2022/11/07 02:59:50;;;;;;;12.07;3.03;;;;;;;12.03;100.00;100599.72;2615688;31;20045;-56
2022/11/07 03:02:18;;;;;;;;;;;;;;;11.91;100.00;100597.22;2615915;31;20400;-54
2022/11/07 03:04:46;;;;;;;7.85;3.95;;;;;;;11.98;100.00;100602.84;2616737;31;19947;-55
2022/11/07 03:07:14;;;;;;;6.88;3.58;;;;;;;12.05;100.00;100603.13;2615351;36;20034;-53
2022/11/07 03:09:42;;;;;;;10.43;3.58;;;;;;;12.09;100.00;100604.50;2615088;36;20038;-54
2022/11/07 03:12:11;;;;;;;13.52;4.40;;;;;;;12.07;100.00;100610.06;2615724;31;20034;-53
2022/11/07 03:14:42;;;;;;;8.07;3.67;;;;;;;11.98;100.00;100604.72;2615128;36;20034;-54
2022/11/07 03:17:10;;;;;;;5.63;3.65;;;;;;;12.00;100.00;100619.75;2615326;36;20558;-51
2022/11/07 03:19:39;;;;;;;8.32;3.72;;;;;;;12.08;100.00;100614.44;2615980;31;20038;-52
2022/11/07 03:22:07;;;;;;;15.68;4.45;;;;;;;12.11;100.00;100618.69;2614716;36;20558;-54
2022/11/07 03:24:35;;;;;;;10.38;4.43;;;;;;;11.99;100.00;100611.81;2615562;36;20039;-54
2022/11/07 03:27:04;;;;;;;13.25;4.20;;;;;;;11.90;100.00;100610.84;2615301;31;20689;-56
2022/11/07 03:29:32;;;;;;;6.70;4.10;;;;;;;12.07;100.00;100615.47;2615406;36;20034;-55
2022/11/07 03:32:03;;;;;;;9.38;4.03;;;;;;;12.05;100.00;100616.59;2615361;31;20031;-57
2022/11/07 03:34:31;;;;;;;11.82;3.88;;;;;;;11.96;100.00;100620.22;2616518;36;20026;-53
2022/11/07 03:36:59;;;;;;;7.70;3.67;;;;;;;11.91;100.00;100617.91;2614922;36;20041;-57
2022/11/07 03:39:28;;;;;;;10.25;3.95;;;;;;;12.00;100.00;100619.75;2615651;36;20022;-55
2022/11/07 03:41:56;;;;;;;9.68;4.10;;;;;;;12.06;100.00;100624.53;2616492;36;20420;-49
2022/11/07 03:44:24;;;;;;;9.73;4.68;;;;;;;12.07;100.00;100619.97;2615493;36;20042;-56
2022/11/07 03:46:53;;;;;;;7.57;4.13;;;;;;;12.16;100.00;100623.63;2615844;36;20022;-54
2022/11/07 03:49:24;;;;;;;7.07;4.22;;;;;;;12.17;100.00;100612.69;2617197;36;20061;-57
2022/11/07 03:51:52;;;;;;;6.25;3.85;;;;;;;12.04;100.00;100614.91;2615871;36;20029;-53
2022/11/07 03:54:20;;;;;;;12.75;4.13;;;;;;;12.16;100.00;100623.63;2616397;31;20031;-55
2022/11/07 03:56:48;;;;;;;7.82;3.88;;;;;;;11.96;100.00;100625.63;2618234;31;20452;-54
2022/11/07 03:59:17;;;;;;;10.27;4.53;;;;;;;11.94;100.00;100614.09;2616653;36;20031;-54
2022/11/07 04:01:45;;;;;;;7.70;3.72;;;;;;;11.92;100.00;100612.41;2616339;36;20034;-59
2022/11/07 04:04:14;;;;;;;8.35;3.67;;;;;;;12.16;100.00;100619.09;2616433;36;20547;-55
2022/11/07 04:06:46;;;;;;;11.90;4.53;;;;;;;12.08;100.00;100625.22;2615889;36;20034;-54
2022/11/07 04:09:14;;;;;;;13.95;4.05;;;;;;;11.93;100.00;100621.34;2615117;36;20035;-57
2022/11/07 04:19:44;;;;;;;7.30;3.28;;;;;;;11.91;100.00;100631.41;2616509;36;20562;-52
2022/11/07 04:22:15;;;;;;;6.72;3.40;;;;;;;11.71;100.00;100627.97;2613747;36;20044;-53
2022/11/07 04:24:44;;;;;;;6.95;3.50;;;;;;;11.87;100.00;100625.47;2616152;36;20034;-53
2022/11/07 04:29:54;;;;;;;9.73;3.20;;;;;;;11.80;100.00;100640.56;2615494;36;20041;-53
2022/11/07 04:32:22;;;;;;;9.07;3.83;;;;;;;11.87;100.00;100635.41;2615638;36;20542;-50
2022/11/07 04:34:50;;;;;;;9.87;3.20;;;;;;;11.84;100.00;100639.25;2616024;36;20045;-52
2022/11/07 04:37:21;;;;;;;6.72;3.33;;;;;;;11.93;100.00;100634.84;2615217;36;20022;-53
2022/11/07 04:39:49;;;;;;;12.38;4.00;;;;;;;11.87;100.00;100636.25;2615951;36;20411;-55
2022/11/07 04:42:18;;;;;;;11.90;3.72;;;;;;;11.81;100.00;100647.66;2615801;36;20033;-51
2022/11/07 04:44:46;;;;;;;8.10;3.00;;;;;;;11.91;100.00;100644.88;2615875;36;20030;-57
2022/11/07 04:47:14;;;;;;;6.68;3.30;;;;;;;11.89;100.00;100644.19;2616379;36;20082;-56
2022/11/07 04:49:43;;;;;;;9.00;3.50;;;;;;;12.02;100.00;100646.59;2616160;36;20682;-56
2022/11/07 04:52:11;;;;;;;10.20;3.58;;;;;;;11.97;100.00;100649.72;2614087;36;20034;-52
2022/11/07 04:54:42;;;;;;;8.82;3.20;;;;;;;12.05;100.00;100648.97;2616949;36;20415;-55
2022/11/07 04:57:10;;;;;;;9.32;3.88;;;;;;;11.98;100.00;100642.47;2616111;31;20037;-51
2022/11/07 04:59:39;;;;;;;10.32;3.55;;;;;;;11.99;100.00;100642.31;2616703;36;20436;-54
2022/11/07 05:02:07;;;;;;;8.80;3.53;;;;;;;12.05;100.00;100639.03;2614554;36;20050;-54
2022/11/07 05:04:35;;;;;;;9.38;3.30;;;;;;;12.27;100.00;100643.13;2616370;36;20496;-55
2022/11/07 05:07:04;;;;;;;11.90;4.05;;;;;;;12.24;100.00;100643.44;2615595;31;20574;-52
2022/11/07 05:09:33;;;;;;;12.10;4.20;;;;;;;12.20;100.00;100641.22;2615355;36;20034;-54
2022/11/07 05:12:04;;;;;;;10.43;3.63;;;;;;;12.23;100.00;100644.47;2616687;31;20057;-53
2022/11/07 05:14:34;;;;;;;11.50;3.50;;;;;;;12.39;100.00;100642.94;2617284;36;20451;-54
2022/11/07 05:17:04;;;;;;;14.07;3.88;;;;;;;12.37;100.00;100653.03;2615017;36;20058;-57
2022/11/07 05:19:33;;;;;;;6.25;3.40;;;;;;;12.24;100.00;100656.09;2616674;36;20587;-56
2022/11/07 05:24:42;;;;;;;7.55;3.75;;;;;;;12.39;100.00;100640.22;2615555;31;20708;-55
2022/11/07 05:27:20;;;;;;;11.90;3.63;;;;;;;12.18;100.00;100638.66;2615599;36;20041;-53
2022/11/07 05:29:48;;;;;;;11.57;3.97;;;;;;;12.24;100.00;100638.06;2616054;36;20614;-55
2022/11/07 05:32:18;;;;;;;17.83;4.10;;;;;;;12.26;100.00;100644.16;2615879;31;20034;-52
2022/11/07 05:34:46;;;;;;;;;;;;;;;12.19;100.00;100636.81;2616379;36;20061;-57
2022/11/07 05:37:15;;;;;;;9.45;3.50;;;;;;;12.19;100.00;100634.09;2615221;36;19946;-56
2022/11/07 05:39:43;;;;;;;10.52;3.83;;;;;;;12.29;100.00;100644.84;2615500;36;20042;-52
2022/11/07 05:42:11;;;;;;;11.25;3.50;;;;;;;12.43;100.00;100645.16;2616397;31;20034;-53
2022/11/07 05:44:42;;;;;;;12.77;3.37;;;;;;;12.44;100.00;100637.94;2616403;36;20057;-58
2022/11/07 05:47:11;;;;;;;8.80;3.05;;;;;;;12.39;100.00;100641.06;2615625;36;20077;-52
2022/11/07 05:49:39;;;;;;;14.95;5.03;;;;;;;12.43;100.00;100638.94;2615006;36;20034;-53
2022/11/07 05:52:07;;;;;;;12.93;3.47;;;;;;;12.65;100.00;100644.84;2606316;36;20045;-52
2022/11/07 05:54:35;;;;;;;10.70;3.75;;;;;;;12.35;100.00;100644.22;2614819;31;20697;-56
2022/11/07 05:57:04;;;;;;;12.13;3.40;;;;;;;12.40;100.00;100644.63;2616391;36;20026;-55
2022/11/07 05:59:32;;;;;;;9.27;3.33;;;;;;;12.43;100.00;100644.31;2616146;36;20041;-55
2022/11/07 06:02:03;;;;;;;10.57;3.55;;;;;;;12.36;100.00;100649.47;2614747;36;20030;-52
2022/11/07 06:04:31;;;;;;;11.98;3.28;;;;;;;12.46;100.00;100645.88;2616987;36;20029;-56
2022/11/07 06:07:02;;;;;;;10.85;3.20;;;;;;;12.48;100.00;100651.97;2615234;36;20552;-55
2022/11/07 06:09:31;;;;;;;13.32;3.28;;;;;;;12.46;100.00;100657.50;2615639;36;20034;-57
2022/11/07 06:11:59;;;;;;;13.18;3.80;;;;;;;12.31;100.00;100643.69;2615796;36;20022;-53
2022/11/07 06:14:29;;;;;;;10.70;3.67;;;;;;;12.42;100.00;100646.16;2613940;36;20038;-56
2022/11/07 06:16:57;;;;;;;10.27;3.63;;;;;;;12.44;100.00;100659.53;2615090;36;20034;-52
2022/11/07 06:19:28;;;;;;;9.20;3.65;;;;;;;12.38;100.00;100652.88;2614605;36;20037;-55
2022/11/07 06:21:56;;;;;;;11.23;4.25;;;;;;;12.39;100.00;100656.41;2614601;36;20039;-57
2022/11/07 06:24:25;;;;;;;11.77;4.40;;;;;;;12.44;100.00;100644.16;2615953;31;20034;-56
2022/11/07 06:26:53;;;;;;;11.05;4.43;;;;;;;12.45;100.00;100645.00;2615147;36;20026;-54
2022/11/07 06:29:21;;;;;;;12.52;4.82;;;;;;;12.43;100.00;100653.25;2615162;36;20535;-53
2022/11/07 06:31:49;;;;;;;10.52;4.72;;;;;;;12.69;100.00;100651.63;2613934;36;20038;-54
2022/11/07 06:34:18;;;;;;;12.23;3.92;;;;;;;12.72;100.00;100651.31;2614508;36;20034;-57
2022/11/07 06:36:53;;;;;;;16.70;4.80;;;;;;;12.54;100.00;100671.06;2614984;36;20042;-53
2022/11/07 06:39:21;;;;;;;15.55;4.65;;;;;;;12.62;100.00;100656.81;2615818;36;20550;-54
2022/11/07 06:41:50;;;;;;;11.00;3.80;;;;;;;12.58;100.00;100671.63;2615275;36;20038;-53
2022/11/07 06:44:19;;;;;;;10.60;4.80;;;;;;;12.67;100.00;100669.84;2613844;36;20022;-54
2022/11/07 06:46:47;;;;;;;13.50;4.57;;;;;;;12.71;100.00;100666.69;2614261;36;20038;-51
2022/11/07 06:49:17;;;;;;;10.00;3.60;;;;;;;12.76;100.00;100655.41;2613951;36;20045;-54
2022/11/07 06:51:45;;;;;;;11.20;3.78;;;;;;;12.71;100.00;100680.19;2614989;36;20039;-55
2022/11/07 06:54:16;;;;;;;17.80;5.93;;;;;;;12.63;100.00;100674.69;2613178;36;20026;-56
2022/11/07 06:56:44;;;;;;;12.05;4.03;;;;;;;12.63;100.00;100680.09;2608426;36;20061;-55
2022/11/07 06:59:13;;;;;;;9.68;3.88;;;;;;;12.55;100.00;100688.97;2615890;36;20035;-55
2022/11/07 07:01:42;;;;;;;10.95;3.95;;;;;;;12.61;100.00;100682.13;2612852;36;20022;-58
2022/11/07 07:04:12;;;;;;;8.57;4.00;;;;;;;12.66;100.00;100687.91;2615673;36;21439;-56
2022/11/07 07:06:40;;;;;;;12.68;4.00;;;;;;;12.70;100.00;100691.16;2614655;36;20030;-52
2022/11/07 07:09:08;;;;;;;11.73;3.90;;;;;;;12.87;100.00;100689.47;2613887;36;20551;-54
2022/11/07 07:11:47;;;;;;;20.70;4.63;;;;;;;12.75;100.00;100695.09;2614120;31;20030;-54
2022/11/07 07:14:15;;;;;;;11.23;4.55;;;;;;;12.86;100.00;100704.78;2615822;36;20050;-54
2022/11/07 07:16:44;;;;;;;9.05;2.90;;;;;;;13.00;100.00;100706.13;2615100;36;20042;-56
2022/11/07 07:19:13;;;;;;;12.32;3.45;;;;;;;12.81;100.00;100707.13;2614840;31;20023;-57
2022/11/07 07:21:42;;;;;;;13.90;3.65;;;;;;;12.86;100.00;100702.09;2614477;36;20023;-55
2022/11/07 07:24:10;;;;;;;11.60;3.85;;;;;;;13.03;100.00;100708.50;2617563;31;20485;-55
2022/11/07 07:26:38;;;;;;;14.43;3.40;;;;;;;13.05;100.00;100702.94;2614744;36;20034;-58
2022/11/07 07:29:09;;;;;;;10.75;3.50;;;;;;;12.93;100.00;100697.78;2611709;36;20415;-55
2022/11/07 07:31:38;;;;;;;19.05;3.65;;;;;;;12.95;100.00;100701.16;2613165;36;20065;-56
2022/11/07 07:34:06;;;;;;;11.95;3.60;;;;;;;12.96;100.00;100700.16;2617091;36;20023;-55
2022/11/07 07:36:34;;;;;;;13.35;3.22;;;;;;;12.94;100.00;100694.06;2616473;36;20034;-57
2022/11/07 07:39:02;;;;;;;10.50;3.28;;;;;;;13.01;100.00;100694.28;2615805;36;20903;-58
2022/11/07 07:41:31;;;;;;;10.15;3.65;;;;;;;13.07;100.00;100699.09;2614513;36;20048;-57
2022/11/07 07:43:59;;;;;;;11.13;3.25;;;;;;;13.14;100.00;100710.94;2615600;36;20035;-52
2022/11/07 07:46:30;;;;;;;14.73;4.20;;;;;;;13.03;100.00;100707.63;2616390;31;20065;-56
2022/11/07 07:48:58;;;;;;;12.02;3.22;;;;;;;13.18;100.00;100711.50;2614687;36;20022;-55
2022/11/07 07:51:27;;;;;;;10.23;3.63;;;;;;;13.23;100.00;100703.75;2612441;31;20030;-55
2022/11/07 07:53:55;;;;;;;10.52;3.38;;;;;;;13.28;100.00;100712.25;2614005;36;20034;-53
2022/11/07 07:56:23;;;;;;;14.00;3.63;;;;;;;13.13;100.00;100700.28;2609236;31;20128;-58
2022/11/07 07:58:51;;;;;;;15.15;4.00;;;;;;;13.13;100.00;100713.81;2615999;36;20420;-55
2022/11/07 08:01:20;;;;;;;14.07;3.92;;;;;;;13.10;100.00;100720.38;2615060;36;20042;-52
2022/11/07 08:03:51;;;;;;;10.23;3.20;;;;;;;13.13;100.00;100725.47;2611049;36;20026;-58
2022/11/07 08:06:19;;;;;;;9.00;2.90;;;;;;;13.33;100.00;100720.72;2615381;36;20292;-57
2022/11/07 08:08:47;;;;;;;8.85;3.72;;;;;;;13.28;100.00;100723.06;2616262;36;20427;-55
2022/11/07 08:11:16;;;;;;;10.55;3.25;;;;;;;13.17;100.00;100719.75;2617021;31;20435;-55
2022/11/07 08:13:44;;;;;;;11.35;3.25;;;;;;;13.40;100.00;100728.25;2616407;36;20030;-57
2022/11/07 08:16:12;;;;;;;6.85;3.35;;;;;;;13.47;100.00;100724.75;2615099;36;20022;-57
2022/11/07 08:18:41;;;;;;;7.80;3.15;;;;;;;13.41;100.00;100724.53;2616784;36;20022;-56
2022/11/07 08:21:12;;;;;;;13.43;4.00;;;;;;;13.31;100.00;100728.16;2615586;36;20052;-54
2022/11/07 08:23:40;;;;;;;9.82;3.58;;;;;;;13.30;100.00;100737.25;2614099;36;20038;-56
2022/11/07 08:26:08;;;;;;;14.57;3.33;;;;;;;13.40;100.00;100744.47;2615659;36;20077;-54
2022/11/07 08:28:37;;;;;;;8.90;3.55;;;;;;;13.48;100.00;100753.47;2614178;36;20038;-55
2022/11/07 08:31:08;;;;;;;5.88;3.45;;;;;;;13.56;100.00;100760.81;2612667;36;20038;-57
2022/11/07 08:33:37;;;;;;;7.72;3.10;;;;;;;13.55;100.00;100764.50;2617186;36;20443;-53
2022/11/07 08:36:07;;;;;;;7.50;2.95;;;;;;;13.59;100.00;100757.78;2614166;36;20069;-54
2022/11/07 08:38:38;;;;;;;10.75;3.20;;;;;;;13.45;100.00;100766.47;2615671;36;20455;-58
2022/11/07 08:41:07;;;;;;;13.07;3.65;;;;;;;13.60;100.00;100777.56;2616425;36;20475;-57
2022/11/07 08:43:36;;;;;;;10.25;3.40;;;;;;;13.63;100.00;100774.53;2614257;36;20054;-54
2022/11/07 08:46:04;;;;;;;8.97;3.67;;;;;;;13.61;100.00;100777.41;2613522;36;20022;-53
2022/11/07 08:48:32;;;;;;;12.75;3.25;;;;;;;13.72;100.00;100772.75;2615849;36;20271;-57
2022/11/07 08:51:01;;;;;;;13.07;3.73;;;;;;;13.88;100.00;100782.81;2616534;36;20038;-57
2022/11/07 08:53:31;;;;;;;12.23;3.58;;;;;;;13.72;100.00;100778.16;2613343;36;20042;-56
2022/11/07 08:56:05;;;;;;;;;;;;;;;13.73;100.00;100772.56;2615399;36;20041;-56
2022/11/07 08:58:34;;;;;;;4.95;2.83;;;;;;;13.92;100.00;100773.38;2615863;36;20479;-56
2022/11/07 09:01:02;;;;;;;14.90;3.83;;;;;;;13.77;100.00;100778.53;2613373;36;21757;-56
2022/11/07 09:03:30;;;;;;;10.25;3.30;;;;;;;14.00;100.00;100774.28;2608116;36;20030;-57
2022/11/07 09:05:59;;;;;;;10.73;3.80;;;;;;;13.97;100.00;100781.84;2615086;36;20038;-52
2022/11/07 09:08:27;;;;;;;9.32;3.00;;;;;;;14.01;100.00;100789.47;2609304;36;20042;-57
2022/11/07 09:10:55;;;;;;;7.53;3.10;;;;;;;14.04;100.00;100798.31;2614355;36;20114;-57
2022/11/07 09:13:27;;;;;;;5.30;3.00;;;;;;;13.89;100.00;100801.59;2615154;36;20338;-55
2022/11/07 09:15:58;;;;;;;8.50;3.45;;;;;;;13.92;100.00;100795.03;2615054;36;20299;-54
2022/11/07 09:18:26;;;;;;;9.73;3.30;;;;;;;13.95;100.00;100795.53;2614655;36;20670;-54
2022/11/07 09:20:55;;;;;;;8.10;3.03;;;;;;;13.88;100.00;100799.88;2615431;36;20045;-54
2022/11/07 09:23:24;;;;;;;14.18;2.90;;;;;;;14.08;100.00;100799.69;2615957;36;20031;-54
2022/11/07 09:25:52;;;;;;;10.07;3.28;;;;;;;13.90;100.00;100803.31;2615299;36;20034;-56
2022/11/07 09:28:21;;;;;;;9.63;3.50;;;;;;;14.10;100.00;100795.78;2616883;31;20030;-56
2022/11/07 09:30:54;;;;;;;7.50;2.77;;;;;;;14.31;100.00;100802.66;2613801;36;20059;-55
2022/11/07 09:33:23;;;;;;;8.63;3.58;;;;;;;14.21;100.00;100805.50;2615647;31;20559;-58
2022/11/07 09:35:52;;;;;;;8.93;3.53;;;;;;;14.29;100.00;100802.81;2613627;36;20034;-59
2022/11/07 09:38:21;;;;;;;9.15;3.00;;;;;;;14.60;100.00;100804.16;2615700;31;20030;-57
2022/11/07 09:40:55;;;;;;;6.50;2.80;;;;;;;14.46;100.00;100798.34;2616499;36;20022;-56
2022/11/07 09:43:55;;;;;;;6.53;2.83;;;;;;;14.65;100.00;100807.22;2614764;36;20575;-56
2022/11/07 09:46:34;;;;;;;8.02;3.50;;;;;;;14.54;100.00;100800.22;2612943;36;20049;-56
2022/11/07 09:49:11;;;;;;;11.07;2.75;;;;;;;14.51;100.00;100806.81;2615923;36;20041;-56
2022/11/07 09:51:44;;;;;;;11.38;2.67;;;;;;;14.56;100.00;100809.06;2614402;36;20023;-57
2022/11/07 09:54:17;;;;;;;12.85;4.00;;;;;;;14.76;100.00;100814.22;2615174;36;20122;-57
2022/11/07 09:56:45;;;;;;;9.15;2.75;;;;;;;14.86;100.00;100820.34;2615822;36;20563;-56
2022/11/07 09:59:22;;;;;;;6.50;2.58;;;;;;;14.76;100.00;100819.66;2617389;31;20404;-52
2022/11/07 10:01:53;;;;;;;13.80;3.40;;;;;;;14.70;100.00;100826.56;2615265;31;20022;-57
2022/11/07 10:04:24;;;;;;;9.77;3.03;;;;;;;14.73;100.00;100828.94;2616280;31;20034;-57
2022/11/07 10:06:57;;;;;;;10.43;3.22;;;;;;;14.67;100.00;100835.84;2609460;36;20530;-55
2022/11/07 10:09:37;;;;;;;8.50;2.75;;;;;;;14.42;100.00;100834.88;2610377;36;20026;-57
2022/11/07 10:12:17;;;;;;;10.50;3.30;;;;;;;14.71;100.00;100829.09;2615806;36;20562;-56
2022/11/07 10:14:57;;;;;;;6.97;3.15;;;;;;;14.63;100.00;100830.94;2616049;36;20057;-57
2022/11/07 10:17:37;;;;;;;8.75;2.70;;;;;;;14.68;100.00;100836.72;2612849;36;20083;-56
2022/11/07 10:20:15;;;;;;;14.48;3.03;;;;;;;14.63;100.00;100837.19;2612391;36;20022;-57
2022/11/07 10:23:06;;;;;;;14.52;3.05;;;;;;;14.66;100.00;100831.47;2612804;36;20034;-56
2022/11/07 10:25:43;;;;;;;10.77;3.42;;;;;;;14.48;100.00;100844.22;2613324;31;20056;-56
2022/11/07 10:28:15;;;;;;;10.02;3.13;;;;;;;14.49;100.00;100854.06;2612898;36;20038;-57
2022/11/07 10:30:46;;;;;;;7.28;4.05;;;;;;;14.42;100.00;100855.69;2612761;36;20038;-57
2022/11/07 10:33:37;;;;;;;7.32;2.85;;;;;;;14.71;100.00;100850.78;2612966;36;20034;-60
2022/11/07 10:36:12;;;;;;;9.90;3.35;;;;;;;14.66;100.00;100842.31;2611651;31;20039;-58
2022/11/07 10:38:44;;;;;;;12.77;3.00;;;;;;;14.65;100.00;100856.84;2614560;31;20023;-56
2022/11/07 10:41:20;;;;;;;7.50;2.95;;;;;;;14.53;100.00;100868.94;2615563;36;20038;-58
2022/11/07 10:43:54;;;;;;;5.40;2.97;;;;;;;14.41;100.00;100845.88;2616383;36;20045;-57
2022/11/07 10:46:26;;;;;;;10.23;3.20;;;;;;;14.69;100.00;100860.94;2615418;31;20050;-57
2022/11/07 10:49:01;;;;;;;11.75;3.25;;;;;;;14.93;100.00;100859.34;2615987;36;20034;-57
2022/11/07 10:51:38;;;;;;;10.27;3.53;;;;;;;14.91;100.00;100839.66;2614734;36;20492;-57
2022/11/07 10:54:07;;;;;;;10.10;2.97;;;;;;;14.88;100.00;100850.84;2614146;36;20034;-55
2022/11/07 10:56:45;;;;;;;11.02;3.17;;;;;;;14.73;100.00;100853.31;2612538;31;20031;-57
2022/11/07 10:59:15;;;;;;;8.93;2.95;;;;;;;14.88;100.00;100850.84;2612712;36;20034;-57
2022/11/07 11:01:54;;;;;;;10.93;3.33;;;;;;;14.93;100.00;100859.34;2611797;36;20057;-57
2022/11/07 11:04:27;;;;;;;;;;;;;;;14.85;100.00;100853.88;2611861;36;20439;-56
2022/11/07 11:07:03;;;;;;;11.95;3.40;;;;;;;14.94;100.00;100855.59;2612432;36;20482;-58
2022/11/07 11:09:33;;;;;;;9.85;3.15;;;;;;;14.78;100.00;100860.97;2603809;36;20046;-57
2022/11/07 11:12:06;;;;;;;9.85;3.22;;;;;;;14.93;100.00;100862.03;2614186;36;20054;-57
2022/11/07 11:14:34;;;;;;;9.68;3.45;;;;;;;14.85;100.00;100856.59;2615922;31;20046;-57
2022/11/07 11:17:03;;;;;;;11.30;3.13;;;;;;;14.80;100.00;100859.78;2610180;31;20065;-55
2022/11/07 11:19:42;;;;;;;10.82;3.58;;;;;;;14.90;100.00;100840.69;2615351;36;20034;-58
2022/11/07 11:22:17;;;;;;;14.15;3.70;;;;;;;14.91;100.00;100855.91;2613017;36;20879;-55
2022/11/07 11:24:45;;;;;;;14.65;3.75;;;;;;;15.18;100.00;100867.50;2615092;36;20045;-57
2022/11/07 11:27:19;;;;;;;8.93;3.35;;;;;;;15.18;100.00;100867.50;2614035;36;20631;-57
2022/11/07 11:29:55;;;;;;;11.85;3.85;;;;;;;15.32;100.00;100858.72;2611459;36;20018;-59
2022/11/07 11:32:28;;;;;;;9.27;3.50;;;;;;;15.32;100.00;100853.31;2612243;31;20046;-57
2022/11/07 11:35:08;;;;;;;10.68;3.30;;;;;;;15.16;100.00;100853.28;2610866;36;20038;-57
2022/11/07 11:37:37;;;;;;;;;;;;;;;15.15;100.00;100862.41;2611667;36;20034;-57
2022/11/07 11:40:16;;;;;;;16.85;3.88;;;;;;;15.18;100.00;100867.50;2613266;36;19966;-57
2022/11/07 11:42:50;;;;;;;9.98;3.65;;;;;;;14.82;100.00;100862.34;2616780;36;20400;-54
2022/11/07 11:45:26;;;;;;;9.95;3.15;;;;;;;15.11;100.00;100858.38;2611864;36;20040;-59